Time,TemperatureF,DewpointF,PressureIn,WindDirection,WindDirectionDegrees,WindSpeedMPH,WindSpeedGustMPH,Humidity,HourlyPrecipIn,Conditions,Clouds,dailyrainin,SoftwareType,DateUTC
2013-05-06 00:01:00,56.7,42.5,30.01,ESE,113,0.0,0.0,59,0.00,,---,0.00,VWS V14.01,2013-05-06 04:01:00,
2013-05-06 00:06:00,56.5,43.7,30.01,ESE,113,2.0,4.0,62,0.00,,---,0.00,VWS V14.01,2013-05-06 04:06:00,
2013-05-06 00:11:00,55.9,43.5,30.01,ESE,113,1.0,2.0,63,0.00,,---,0.00,VWS V14.01,2013-05-06 04:11:00,
2013-05-06 00:16:00,55.2,42.8,30.02,ESE,113,0.0,0.0,63,0.00,,---,0.00,VWS V14.01,2013-05-06 04:16:00,
2013-05-06 00:21:00,54.6,41.4,30.02,ESE,113,0.0,0.0,61,0.00,,---,0.00,VWS V14.01,2013-05-06 04:21:00,
2013-05-06 00:26:00,54.4,40.4,30.02,ESE,113,0.0,0.0,59,0.00,,---,0.00,VWS V14.01,2013-05-06 04:26:00,
2013-05-06 00:31:00,54.4,41.2,30.01,ESE,113,0.0,0.0,61,0.00,,---,0.00,VWS V14.01,2013-05-06 04:31:00,
2013-05-06 00:36:00,54.4,41.2,30.01,ESE,113,0.0,0.0,61,0.00,,---,0.00,VWS V14.01,2013-05-06 04:36:00,
2013-05-06 00:41:00,54.2,41.5,30.01,ESE,113,0.0,0.0,62,0.00,,---,0.00,VWS V14.01,2013-05-06 04:41:00,
2013-05-06 00:46:00,54.0,41.3,30.01,ESE,113,0.0,0.0,62,0.00,,---,0.00,VWS V14.01,2013-05-06 04:46:00,
2013-05-06 00:51:00,53.9,41.2,30.01,ESE,113,0.0,0.0,62,0.00,,---,0.00,VWS V14.01,2013-05-06 04:51:00,
2013-05-06 00:56:00,53.7,41.4,30.01,ESE,113,0.0,0.0,63,0.00,,---,0.00,VWS V14.01,2013-05-06 04:56:00,
2013-05-06 01:01:00,53.6,41.3,30.01,ESE,113,0.0,0.0,63,0.00,,---,0.00,VWS V14.01,2013-05-06 05:01:00,
2013-05-06 01:06:00,53.5,41.6,30.01,ESE,113,0.0,0.0,64,0.00,,---,0.00,VWS V14.01,2013-05-06 05:06:00,
2013-05-06 01:11:00,53.3,43.4,30.01,ESE,113,0.0,0.0,69,0.00,,---,0.00,VWS V14.01,2013-05-06 05:11:00,
2013-05-06 01:16:00,53.0,43.5,30.02,ESE,113,0.0,0.0,70,0.00,,---,0.00,VWS V14.01,2013-05-06 05:16:00,
2013-05-06 01:21:00,52.6,43.1,30.01,ESE,113,0.0,0.0,70,0.00,,---,0.00,VWS V14.01,2013-05-06 05:21:00,
2013-05-06 01:26:00,52.4,43.3,30.01,ESE,113,0.0,0.0,71,0.00,,---,0.00,VWS V14.01,2013-05-06 05:26:00,
2013-05-06 01:31:00,52.3,43.5,30.01,ESE,113,0.0,0.0,72,0.00,,---,0.00,VWS V14.01,2013-05-06 05:31:00,
2013-05-06 01:36:00,52.1,43.7,30.01,ESE,113,0.0,0.0,73,0.00,,---,0.00,VWS V14.01,2013-05-06 05:36:00,
2013-05-06 01:41:00,51.9,44.2,30.01,ESE,113,2.0,2.0,75,0.00,,---,0.00,VWS V14.01,2013-05-06 05:41:00,
2013-05-06 01:46:00,51.7,44.0,30.01,ESE,113,1.0,2.0,75,0.00,,---,0.00,VWS V14.01,2013-05-06 05:46:00,
2013-05-06 01:51:00,51.5,44.2,30.01,ESE,113,0.0,1.0,76,0.00,,---,0.00,VWS V14.01,2013-05-06 05:51:00,
2013-05-06 01:56:00,51.3,44.7,30.01,ESE,113,0.0,0.0,78,0.00,,---,0.00,VWS V14.01,2013-05-06 05:56:00,
2013-05-06 02:01:00,51.1,44.5,30.00,ESE,113,0.0,0.0,78,0.00,,---,0.00,VWS V14.01,2013-05-06 06:01:00,
2013-05-06 02:06:00,51.0,43.7,30.00,ESE,113,0.0,0.0,76,0.00,,---,0.00,VWS V14.01,2013-05-06 06:06:00,
2013-05-06 02:11:00,50.8,43.9,30.00,ESE,113,0.0,0.0,77,0.00,,---,0.00,VWS V14.01,2013-05-06 06:11:00,
2013-05-06 02:16:00,50.6,43.7,30.00,ESE,113,0.0,0.0,77,0.00,,---,0.00,VWS V14.01,2013-05-06 06:16:00,
2013-05-06 02:22:00,50.5,43.6,30.00,ESE,113,0.0,0.0,77,0.00,,---,0.00,VWS V14.01,2013-05-06 06:22:00,
2013-05-06 02:27:00,50.4,44.1,30.00,ESE,113,0.0,0.0,79,0.00,,---,0.00,VWS V14.01,2013-05-06 06:27:00,
2013-05-06 02:32:00,50.3,43.7,30.00,ESE,113,0.0,0.0,78,0.00,,---,0.00,VWS V14.01,2013-05-06 06:32:00,
2013-05-06 02:37:00,50.3,43.7,30.00,ESE,113,0.0,0.0,78,0.00,,---,0.00,VWS V14.01,2013-05-06 06:37:00,
2013-05-06 02:42:00,50.3,43.7,30.00,ESE,113,0.0,0.0,78,0.00,,---,0.00,VWS V14.01,2013-05-06 06:42:00,
2013-05-06 02:47:00,50.4,44.1,30.00,ESE,113,0.0,0.0,79,0.00,,---,0.00,VWS V14.01,2013-05-06 06:47:00,
2013-05-06 02:52:00,50.4,44.1,29.99,ESE,113,0.0,0.0,79,0.00,,---,0.00,VWS V14.01,2013-05-06 06:52:00,
2013-05-06 02:57:00,50.3,43.7,29.99,ESE,113,0.0,0.0,78,0.00,,---,0.00,VWS V14.01,2013-05-06 06:57:00,
2013-05-06 03:02:00,50.2,42.9,29.99,ESE,113,0.0,0.0,76,0.00,,---,0.00,VWS V14.01,2013-05-06 07:02:00,
2013-05-06 03:07:00,50.1,42.8,29.99,ESE,113,0.0,0.0,76,0.00,,---,0.00,VWS V14.01,2013-05-06 07:07:00,
2013-05-06 03:12:00,50.1,43.2,29.99,ESE,113,0.0,0.0,77,0.00,,---,0.00,VWS V14.01,2013-05-06 07:12:00,
2013-05-06 03:17:00,50.0,42.7,29.99,ESE,113,0.0,0.0,76,0.00,,---,0.00,VWS V14.01,2013-05-06 07:17:00,
2013-05-06 03:22:00,50.0,42.4,29.99,ESE,113,0.0,0.0,75,0.00,,---,0.00,VWS V14.01,2013-05-06 07:22:00,
2013-05-06 03:27:00,50.2,42.2,29.99,ESE,113,0.0,0.0,74,0.00,,---,0.00,VWS V14.01,2013-05-06 07:27:00,
2013-05-06 03:32:00,50.3,41.6,29.99,ESE,113,0.0,0.0,72,0.00,,---,0.00,VWS V14.01,2013-05-06 07:32:00,
2013-05-06 03:37:00,50.3,41.6,29.99,ESE,113,0.0,0.0,72,0.00,,---,0.00,VWS V14.01,2013-05-06 07:37:00,
2013-05-06 03:42:00,50.4,42.4,29.99,ESE,113,0.0,0.0,74,0.00,,---,0.00,VWS V14.01,2013-05-06 07:42:00,
2013-05-06 03:47:00,50.4,43.5,29.99,ESE,113,0.0,0.0,77,0.00,,---,0.00,VWS V14.01,2013-05-06 07:47:00,
2013-05-06 03:52:00,50.3,43.7,29.99,ESE,113,0.0,0.0,78,0.00,,---,0.00,VWS V14.01,2013-05-06 07:52:00,
2013-05-06 03:57:00,50.1,42.2,30.00,ESE,113,0.0,0.0,74,0.00,,---,0.00,VWS V14.01,2013-05-06 07:57:00,
2013-05-06 04:02:00,49.9,40.9,29.99,ESE,113,0.0,2.0,71,0.00,,---,0.00,VWS V14.01,2013-05-06 08:02:00,
2013-05-06 04:07:00,49.9,41.2,29.99,ESE,113,4.0,4.0,72,0.00,,---,0.00,VWS V14.01,2013-05-06 08:07:00,
2013-05-06 04:12:00,49.9,40.9,29.99,ESE,113,4.0,5.0,71,0.00,,---,0.00,VWS V14.01,2013-05-06 08:12:00,
2013-05-06 04:17:00,50.2,40.4,29.99,ESE,113,5.0,6.0,69,0.00,,---,0.00,VWS V14.01,2013-05-06 08:17:00,
2013-05-06 04:22:00,50.8,40.2,29.99,ESE,113,4.0,5.0,67,0.00,,---,0.00,VWS V14.01,2013-05-06 08:22:00,
2013-05-06 04:27:00,51.5,40.5,29.99,ESE,113,5.0,5.0,66,0.00,,---,0.00,VWS V14.01,2013-05-06 08:27:00,
2013-05-06 04:32:00,51.4,40.4,29.99,ESE,113,5.0,5.0,66,0.00,,---,0.00,VWS V14.01,2013-05-06 08:32:00,
2013-05-06 04:37:00,51.6,39.8,29.99,ESE,113,4.0,5.0,64,0.00,,---,0.00,VWS V14.01,2013-05-06 08:37:00,
2013-05-06 04:42:00,51.8,40.0,29.99,ESE,113,1.0,4.0,64,0.00,,---,0.00,VWS V14.01,2013-05-06 08:42:00,
2013-05-06 04:47:00,51.7,40.3,29.98,ESE,113,0.0,2.0,65,0.00,,---,0.00,VWS V14.01,2013-05-06 08:47:00,
2013-05-06 04:52:00,51.5,40.1,29.98,ESE,113,0.0,0.0,65,0.00,,---,0.00,VWS V14.01,2013-05-06 08:52:00,
2013-05-06 04:57:00,51.2,40.2,29.98,ESE,113,0.0,0.0,66,0.00,,---,0.00,VWS V14.01,2013-05-06 08:57:00,
2013-05-06 05:02:00,51.0,40.1,29.99,ESE,113,0.0,0.0,66,0.00,,---,0.00,VWS V14.01,2013-05-06 09:02:00,
2013-05-06 05:07:00,50.8,40.2,29.99,ESE,113,0.0,0.0,67,0.00,,---,0.00,VWS V14.01,2013-05-06 09:07:00,
2013-05-06 05:12:00,50.5,40.0,29.99,ESE,113,0.0,2.0,67,0.00,,---,0.00,VWS V14.01,2013-05-06 09:12:00,
2013-05-06 05:18:00,50.4,39.9,29.99,ESE,113,0.0,0.0,67,0.00,,---,0.00,VWS V14.01,2013-05-06 09:18:00,
2013-05-06 05:23:00,50.5,40.0,29.99,ESE,113,0.0,0.0,67,0.00,,---,0.00,VWS V14.01,2013-05-06 09:23:00,
2013-05-06 05:28:00,50.6,40.1,29.99,ESE,113,0.0,1.0,67,0.00,,---,0.00,VWS V14.01,2013-05-06 09:28:00,
2013-05-06 05:33:00,50.6,40.1,29.99,ESE,113,1.0,2.0,67,0.00,,---,0.00,VWS V14.01,2013-05-06 09:33:00,
2013-05-06 05:38:00,50.5,40.3,29.99,ESE,113,0.0,2.0,68,0.00,,---,0.00,VWS V14.01,2013-05-06 09:38:00,
2013-05-06 05:43:00,50.4,40.2,29.99,ESE,113,0.0,0.0,68,0.00,,---,0.00,VWS V14.01,2013-05-06 09:43:00,
2013-05-06 05:48:00,50.2,40.1,30.00,ESE,113,0.0,0.0,68,0.00,,---,0.00,VWS V14.01,2013-05-06 09:48:00,
2013-05-06 05:53:00,50.3,40.2,30.00,ESE,113,1.0,1.0,68,0.00,,---,0.00,VWS V14.01,2013-05-06 09:53:00,
2013-05-06 05:58:00,50.5,40.3,29.99,ESE,113,4.0,6.0,68,0.00,,---,0.00,VWS V14.01,2013-05-06 09:58:00,
2013-05-06 06:03:00,50.3,40.5,29.99,ESE,113,4.0,5.0,69,0.00,,---,0.00,VWS V14.01,2013-05-06 10:03:00,
2013-05-06 06:08:00,50.1,40.3,29.99,ESE,113,5.0,6.0,69,0.00,,---,0.00,VWS V14.01,2013-05-06 10:08:00,
2013-05-06 06:13:00,49.5,40.5,29.99,ESE,113,4.0,5.0,71,0.00,,---,0.00,VWS V14.01,2013-05-06 10:13:00,
2013-05-06 06:18:00,49.0,40.7,29.99,ESE,113,1.0,4.0,73,0.00,,---,0.00,VWS V14.01,2013-05-06 10:18:00,
2013-05-06 06:23:00,48.4,40.5,29.99,ENE,68,3.0,4.0,74,0.00,,---,0.00,VWS V14.01,2013-05-06 10:23:00,
2013-05-06 06:28:00,48.0,40.5,29.99,ENE,68,1.0,3.0,75,0.00,,---,0.00,VWS V14.01,2013-05-06 10:28:00,
2013-05-06 06:33:00,47.8,40.6,29.99,ENE,63,0.0,1.0,76,0.00,,---,0.00,VWS V14.01,2013-05-06 10:33:00,
2013-05-06 06:38:00,47.6,40.4,29.99,ENE,63,0.0,0.0,76,0.00,,---,0.00,VWS V14.01,2013-05-06 10:38:00,
2013-05-06 06:43:00,47.4,40.6,30.00,ENE,59,0.0,0.0,77,0.00,,---,0.00,VWS V14.01,2013-05-06 10:43:00,
2013-05-06 06:48:00,47.2,40.4,30.00,NE,46,0.0,0.0,77,0.00,,---,0.00,VWS V14.01,2013-05-06 10:48:00,
2013-05-06 06:53:00,47.1,40.3,30.00,NE,47,0.0,0.0,77,0.00,,---,0.00,VWS V14.01,2013-05-06 10:53:00,
2013-05-06 06:58:00,47.0,40.5,30.00,NE,47,0.0,0.0,78,0.00,,---,0.00,VWS V14.01,2013-05-06 10:58:00,
2013-05-06 07:03:00,47.1,40.9,30.00,NNW,348,0.0,1.0,79,0.00,,---,0.00,VWS V14.01,2013-05-06 11:03:00,
2013-05-06 07:08:00,47.4,41.5,30.00,West,281,2.0,3.0,80,0.00,,---,0.00,VWS V14.01,2013-05-06 11:08:00,
2013-05-06 07:13:00,48.0,42.1,30.00,NE,56,3.0,3.0,80,0.00,,---,0.00,VWS V14.01,2013-05-06 11:13:00,
2013-05-06 07:18:00,48.7,42.5,30.00,ENE,76,1.0,6.0,79,0.00,,---,0.00,VWS V14.01,2013-05-06 11:18:00,
2013-05-06 07:23:00,49.1,42.2,30.00,SE,133,1.0,1.0,77,0.00,,---,0.00,VWS V14.01,2013-05-06 11:23:00,
2013-05-06 07:28:00,49.2,42.0,30.01,SE,133,0.0,1.0,76,0.00,,---,0.00,VWS V14.01,2013-05-06 11:28:00,
2013-05-06 07:33:00,49.4,42.5,30.01,SE,136,0.0,1.0,77,0.00,,---,0.00,VWS V14.01,2013-05-06 11:33:00,
2013-05-06 07:38:00,49.5,42.3,30.01,SSW,205,0.0,0.0,76,0.00,,---,0.00,VWS V14.01,2013-05-06 11:38:00,
2013-05-06 07:43:00,49.7,42.8,30.01,SSW,207,0.0,1.0,77,0.00,,---,0.00,VWS V14.01,2013-05-06 11:43:00,
2013-05-06 07:48:00,50.1,43.5,30.02,SW,217,2.0,2.0,78,0.00,,---,0.00,VWS V14.01,2013-05-06 11:48:00,
2013-05-06 07:53:00,50.8,44.2,30.02,ESE,102,1.0,2.0,78,0.00,,---,0.00,VWS V14.01,2013-05-06 11:53:00,
2013-05-06 07:58:00,51.3,44.3,30.02,NE,50,0.0,1.0,77,0.00,,---,0.00,VWS V14.01,2013-05-06 11:58:00,
2013-05-06 08:03:00,51.7,44.7,30.02,NNE,24,1.0,2.0,77,0.00,,---,0.00,VWS V14.01,2013-05-06 12:03:00,
2013-05-06 08:08:00,52.1,44.8,30.02,East,94,4.0,4.0,76,0.00,,---,0.00,VWS V14.01,2013-05-06 12:08:00,
2013-05-06 08:13:00,52.5,44.8,30.02,East,92,2.0,5.0,75,0.00,,---,0.00,VWS V14.01,2013-05-06 12:13:00,
2013-05-06 08:18:00,52.9,45.2,30.02,NE,55,3.0,5.0,75,0.00,,---,0.00,VWS V14.01,2013-05-06 12:18:00,
2013-05-06 08:23:00,53.3,45.2,30.03,NE,38,4.0,6.0,74,0.00,,---,0.00,VWS V14.01,2013-05-06 12:23:00,
2013-05-06 08:28:00,53.8,44.6,30.03,ENE,65,5.0,8.0,71,0.00,,---,0.00,VWS V14.01,2013-05-06 12:28:00,
2013-05-06 08:33:00,54.2,45.0,30.03,NE,51,6.0,6.0,71,0.00,,---,0.00,VWS V14.01,2013-05-06 12:33:00,
2013-05-06 08:38:00,54.5,45.3,30.03,ENE,65,5.0,7.0,71,0.00,,---,0.00,VWS V14.01,2013-05-06 12:38:00,
2013-05-06 08:43:00,54.9,45.3,30.03,ENE,67,5.0,6.0,70,0.00,,---,0.00,VWS V14.01,2013-05-06 12:43:00,
2013-05-06 08:48:00,55.1,45.9,30.03,East,89,4.0,5.0,71,0.00,,---,0.00,VWS V14.01,2013-05-06 12:48:00,
2013-05-06 08:53:00,55.3,44.9,30.03,ENE,65,2.0,6.0,68,0.00,,---,0.00,VWS V14.01,2013-05-06 12:53:00,
2013-05-06 08:58:00,55.5,45.5,30.03,ENE,59,5.0,7.0,69,0.00,,---,0.00,VWS V14.01,2013-05-06 12:58:00,
2013-05-06 09:03:00,55.7,44.9,30.03,East,79,5.0,8.0,67,0.00,,---,0.00,VWS V14.01,2013-05-06 13:03:00,
2013-05-06 09:08:00,55.9,44.7,30.03,ENE,78,5.0,8.0,66,0.00,,---,0.00,VWS V14.01,2013-05-06 13:08:00,
2013-05-06 09:13:00,56.2,44.6,30.03,ENE,76,5.0,8.0,65,0.00,,---,0.00,VWS V14.01,2013-05-06 13:13:00,
2013-05-06 09:18:00,56.5,44.5,30.03,East,84,5.0,6.0,64,0.00,,---,0.00,VWS V14.01,2013-05-06 13:18:00,
2013-05-06 09:23:00,56.9,44.5,30.03,ENE,72,4.0,10.0,63,0.00,,---,0.00,VWS V14.01,2013-05-06 13:23:00,
2013-05-06 09:28:00,57.3,45.2,30.03,ENE,74,5.0,8.0,64,0.00,,---,0.00,VWS V14.01,2013-05-06 13:28:00,
2013-05-06 09:33:00,57.7,45.6,30.03,ENE,59,5.0,8.0,64,0.00,,---,0.00,VWS V14.01,2013-05-06 13:33:00,
2013-05-06 09:38:00,58.3,44.9,30.04,ENE,78,2.0,7.0,61,0.00,,---,0.00,VWS V14.01,2013-05-06 13:38:00,
2013-05-06 09:43:00,58.7,44.4,30.03,East,81,2.0,6.0,59,0.00,,---,0.00,VWS V14.01,2013-05-06 13:43:00,
2013-05-06 09:48:00,59.2,45.3,30.03,NNE,21,4.0,5.0,60,0.00,,---,0.00,VWS V14.01,2013-05-06 13:48:00,
2013-05-06 09:53:00,59.5,45.6,30.04,NE,44,3.0,5.0,60,0.00,,---,0.00,VWS V14.01,2013-05-06 13:53:00,
2013-05-06 09:58:00,59.8,44.5,30.04,ESE,106,4.0,7.0,57,0.00,,---,0.00,VWS V14.01,2013-05-06 13:58:00,
2013-05-06 10:03:00,60.2,44.9,30.04,East,97,5.0,5.0,57,0.00,,---,0.00,VWS V14.01,2013-05-06 14:03:00,
2013-05-06 10:08:00,60.6,44.4,30.04,West,267,1.0,5.0,55,0.00,,---,0.00,VWS V14.01,2013-05-06 14:08:00,
2013-05-06 10:13:00,61.1,45.3,30.03,ENE,77,5.0,6.0,56,0.00,,---,0.00,VWS V14.01,2013-05-06 14:13:00,
2013-05-06 10:18:00,61.6,45.8,30.03,East,101,2.0,6.0,56,0.00,,---,0.00,VWS V14.01,2013-05-06 14:18:00,
2013-05-06 10:23:00,62.0,45.7,30.03,NE,44,6.0,7.0,55,0.00,,---,0.00,VWS V14.01,2013-05-06 14:23:00,
2013-05-06 10:28:00,62.2,44.4,30.03,ENE,65,5.0,5.0,52,0.00,,---,0.00,VWS V14.01,2013-05-06 14:28:00,
2013-05-06 10:33:00,62.4,46.0,30.03,NE,51,4.0,6.0,55,0.00,,---,0.00,VWS V14.01,2013-05-06 14:33:00,
2013-05-06 10:38:00,62.7,46.8,30.03,East,91,4.0,5.0,56,0.00,,---,0.00,VWS V14.01,2013-05-06 14:38:00,
2013-05-06 10:43:00,63.2,44.8,30.03,East,82,1.0,6.0,51,0.00,,---,0.00,VWS V14.01,2013-05-06 14:43:00,
2013-05-06 10:48:00,63.7,45.8,30.03,ENE,66,5.0,6.0,52,0.00,,---,0.00,VWS V14.01,2013-05-06 14:48:00,
2013-05-06 10:53:00,64.1,44.0,30.03,NE,49,4.0,7.0,48,0.00,,---,0.00,VWS V14.01,2013-05-06 14:53:00,
2013-05-06 10:58:00,64.2,44.1,30.03,East,88,3.0,7.0,48,0.00,,---,0.00,VWS V14.01,2013-05-06 14:58:00,
2013-05-06 11:03:00,64.6,45.0,30.03,NE,42,4.0,6.0,49,0.00,,---,0.00,VWS V14.01,2013-05-06 15:03:00,
2013-05-06 11:08:00,64.8,45.2,30.03,ENE,66,4.0,4.0,49,0.00,,---,0.00,VWS V14.01,2013-05-06 15:08:00,
2013-05-06 11:13:00,65.2,43.9,30.03,ENE,76,6.0,8.0,46,0.00,,---,0.00,VWS V14.01,2013-05-06 15:13:00,
2013-05-06 11:18:00,65.5,44.8,30.02,NE,42,3.0,7.0,47,0.00,,---,0.00,VWS V14.01,2013-05-06 15:18:00,
2013-05-06 11:23:00,65.9,44.0,30.02,NE,52,3.0,7.0,45,0.00,,---,0.00,VWS V14.01,2013-05-06 15:23:00,
2013-05-06 11:28:00,66.3,44.3,30.02,NE,48,5.0,6.0,45,0.00,,---,0.00,VWS V14.01,2013-05-06 15:28:00,
2013-05-06 11:33:00,66.7,45.3,30.02,NE,55,2.0,6.0,46,0.00,,---,0.00,VWS V14.01,2013-05-06 15:33:00,
2013-05-06 11:38:00,67.1,44.5,30.02,North,5,6.0,6.0,44,0.00,,---,0.00,VWS V14.01,2013-05-06 15:38:00,
2013-05-06 11:43:00,67.5,44.8,30.02,ENE,64,4.0,7.0,44,0.00,,---,0.00,VWS V14.01,2013-05-06 15:43:00,
2013-05-06 11:48:00,68.1,46.6,30.02,NE,53,5.0,7.0,46,0.00,,---,0.00,VWS V14.01,2013-05-06 15:48:00,
2013-05-06 11:53:00,68.4,44.4,30.03,NNE,22,2.0,8.0,42,0.00,,---,0.00,VWS V14.01,2013-05-06 15:53:00,
2013-05-06 11:58:00,68.6,44.0,30.02,ENE,69,2.0,10.0,41,0.00,,---,0.00,VWS V14.01,2013-05-06 15:58:00,
2013-05-06 12:03:00,68.6,42.7,30.02,NE,55,4.0,8.0,39,0.00,,---,0.00,VWS V14.01,2013-05-06 16:03:00,
2013-05-06 12:08:00,68.8,41.5,30.02,East,80,2.0,9.0,37,0.00,,---,0.00,VWS V14.01,2013-05-06 16:08:00,
2013-05-06 12:13:00,69.0,41.7,30.02,ENE,72,5.0,7.0,37,0.00,,---,0.00,VWS V14.01,2013-05-06 16:13:00,
2013-05-06 12:18:00,69.3,41.9,30.02,ENE,69,4.0,8.0,37,0.00,,---,0.00,VWS V14.01,2013-05-06 16:18:00,
2013-05-06 12:23:00,69.5,41.4,30.02,East,84,6.0,7.0,36,0.00,,---,0.00,VWS V14.01,2013-05-06 16:23:00,
2013-05-06 12:28:00,70.0,38.0,30.02,NE,45,8.0,11.0,31,0.00,,---,0.00,VWS V14.01,2013-05-06 16:28:00,
2013-05-06 12:33:00,70.3,38.3,30.02,NE,37,9.0,13.0,31,0.00,,---,0.00,VWS V14.01,2013-05-06 16:33:00,
2013-05-06 12:38:00,70.5,40.8,30.01,ENE,57,7.0,11.0,34,0.00,,---,0.00,VWS V14.01,2013-05-06 16:38:00,
2013-05-06 12:43:00,70.6,40.1,30.01,ENE,66,7.0,12.0,33,0.00,,---,0.00,VWS V14.01,2013-05-06 16:43:00,
2013-05-06 12:48:00,70.9,39.6,30.01,East,82,2.0,8.0,32,0.00,,---,0.00,VWS V14.01,2013-05-06 16:48:00,
2013-05-06 12:53:00,71.2,39.9,30.01,NE,45,4.0,6.0,32,0.00,,---,0.00,VWS V14.01,2013-05-06 16:53:00,
2013-05-06 12:58:00,71.5,40.9,30.01,ENE,59,10.0,11.0,33,0.00,,---,0.00,VWS V14.01,2013-05-06 16:58:00,
2013-05-06 13:03:00,71.7,37.8,30.00,NE,46,8.0,13.0,29,0.00,,---,0.00,VWS V14.01,2013-05-06 17:03:00,
2013-05-06 13:08:00,72.0,38.0,30.01,NNE,27,6.0,12.0,29,0.00,,---,0.00,VWS V14.01,2013-05-06 17:08:00,
2013-05-06 13:13:00,72.2,38.2,30.00,ENE,67,6.0,11.0,29,0.00,,---,0.00,VWS V14.01,2013-05-06 17:13:00,
2013-05-06 13:18:00,72.4,36.6,30.00,NE,49,11.0,13.0,27,0.00,,---,0.00,VWS V14.01,2013-05-06 17:18:00,
2013-05-06 13:23:00,72.4,37.5,30.00,ENE,64,8.0,13.0,28,0.00,,---,0.00,VWS V14.01,2013-05-06 17:23:00,
2013-05-06 13:28:00,72.5,37.6,30.00,ENE,78,8.0,14.0,28,0.00,,---,0.00,VWS V14.01,2013-05-06 17:28:00,
2013-05-06 13:33:00,72.5,37.6,30.00,ENE,59,15.0,18.0,28,0.00,,---,0.00,VWS V14.01,2013-05-06 17:33:00,
2013-05-06 13:38:00,72.6,35.8,30.00,NE,39,7.0,14.0,26,0.00,,---,0.00,VWS V14.01,2013-05-06 17:38:00,
2013-05-06 13:43:00,72.6,38.5,30.00,NE,44,13.0,14.0,29,0.00,,---,0.00,VWS V14.01,2013-05-06 17:43:00,
2013-05-06 13:48:00,72.7,41.2,30.00,NE,47,11.0,15.0,32,0.00,,---,0.00,VWS V14.01,2013-05-06 17:48:00,
2013-05-06 13:53:00,72.9,39.7,30.00,NE,47,10.0,15.0,30,0.00,,---,0.00,VWS V14.01,2013-05-06 17:53:00,
2013-05-06 13:58:00,72.9,38.8,30.00,ENE,77,6.0,14.0,29,0.00,,---,0.00,VWS V14.01,2013-05-06 17:58:00,
2013-05-06 14:03:00,72.7,39.5,30.00,ESE,109,4.0,12.0,30,0.00,,---,0.00,VWS V14.01,2013-05-06 18:03:00,
2013-05-06 14:08:00,72.6,38.5,30.00,ENE,78,7.0,11.0,29,0.00,,---,0.00,VWS V14.01,2013-05-06 18:08:00,
2013-05-06 14:13:00,72.9,42.9,30.00,ENE,77,6.0,10.0,34,0.00,,---,0.00,VWS V14.01,2013-05-06 18:13:00,
2013-05-06 14:18:00,72.9,41.3,29.99,ENE,67,5.0,13.0,32,0.00,,---,0.00,VWS V14.01,2013-05-06 18:18:00,
2013-05-06 14:23:00,73.4,41.8,29.99,NE,43,8.0,11.0,32,0.00,,---,0.00,VWS V14.01,2013-05-06 18:23:00,
2013-05-06 14:28:00,73.4,40.1,29.99,NE,39,8.0,13.0,30,0.00,,---,0.00,VWS V14.01,2013-05-06 18:28:00,
2013-05-06 14:33:00,73.6,40.3,29.99,NE,52,8.0,11.0,30,0.00,,---,0.00,VWS V14.01,2013-05-06 18:33:00,
2013-05-06 14:38:00,73.5,40.2,29.99,East,82,5.0,14.0,30,0.00,,---,0.00,VWS V14.01,2013-05-06 18:38:00,
2013-05-06 14:43:00,73.6,41.1,29.99,East,90,4.0,8.0,31,0.00,,---,0.00,VWS V14.01,2013-05-06 18:43:00,
2013-05-06 14:48:00,73.7,42.8,29.98,NE,53,6.0,11.0,33,0.00,,---,0.00,VWS V14.01,2013-05-06 18:48:00,
2013-05-06 14:53:00,73.5,41.0,29.98,East,80,8.0,10.0,31,0.00,,---,0.00,VWS V14.01,2013-05-06 18:53:00,
2013-05-06 14:58:00,73.2,41.6,29.98,East,84,5.0,11.0,32,0.00,,---,0.00,VWS V14.01,2013-05-06 18:58:00,
2013-05-06 15:03:00,73.2,42.4,29.98,East,97,5.0,7.0,33,0.00,,---,0.00,VWS V14.01,2013-05-06 19:03:00,
2013-05-06 15:08:00,73.4,40.1,29.98,NE,38,7.0,11.0,30,0.00,,---,0.00,VWS V14.01,2013-05-06 19:08:00,
2013-05-06 15:13:00,73.5,41.9,29.98,NE,40,7.0,11.0,32,0.00,,---,0.00,VWS V14.01,2013-05-06 19:13:00,
2013-05-06 15:18:00,73.6,39.4,29.97,NE,43,7.0,13.0,29,0.00,,---,0.00,VWS V14.01,2013-05-06 19:18:00,
2013-05-06 15:23:00,73.8,42.1,29.98,NE,55,12.0,14.0,32,0.00,,---,0.00,VWS V14.01,2013-05-06 19:23:00,
2013-05-06 15:28:00,74.2,40.8,29.98,ENE,59,7.0,10.0,30,0.00,,---,0.00,VWS V14.01,2013-05-06 19:28:00,
2013-05-06 15:33:00,74.2,41.7,29.98,NNE,33,7.0,10.0,31,0.00,,---,0.00,VWS V14.01,2013-05-06 19:33:00,
2013-05-06 15:38:00,74.2,39.9,29.97,NE,44,6.0,12.0,29,0.00,,---,0.00,VWS V14.01,2013-05-06 19:38:00,
2013-05-06 15:43:00,74.4,41.8,29.97,NNE,28,10.0,13.0,31,0.00,,---,0.00,VWS V14.01,2013-05-06 19:43:00,
2013-05-06 15:48:00,74.6,39.4,29.96,ENE,74,6.0,11.0,28,0.00,,---,0.00,VWS V14.01,2013-05-06 19:48:00,
2013-05-06 15:53:00,74.6,40.3,29.96,ENE,68,6.0,11.0,29,0.00,,---,0.00,VWS V14.01,2013-05-06 19:53:00,
2013-05-06 15:58:00,74.8,40.5,29.96,ENE,57,8.0,11.0,29,0.00,,---,0.00,VWS V14.01,2013-05-06 19:58:00,
2013-05-06 16:03:00,74.7,39.5,29.96,ENE,69,10.0,11.0,28,0.00,,---,0.00,VWS V14.01,2013-05-06 20:03:00,
2013-05-06 16:08:00,74.5,40.2,29.95,NNE,31,8.0,12.0,29,0.00,,---,0.00,VWS V14.01,2013-05-06 20:08:00,
2013-05-06 16:13:00,74.4,40.1,29.96,NE,51,6.0,11.0,29,0.00,,---,0.00,VWS V14.01,2013-05-06 20:13:00,
2013-05-06 16:18:00,74.6,41.2,29.95,NNE,27,10.0,12.0,30,0.00,,---,0.00,VWS V14.01,2013-05-06 20:18:00,
2013-05-06 16:23:00,74.6,42.0,29.95,NNE,14,7.0,12.0,31,0.00,,---,0.00,VWS V14.01,2013-05-06 20:23:00,
2013-05-06 16:28:00,74.6,39.4,29.95,NNE,18,8.0,13.0,28,0.00,,---,0.00,VWS V14.01,2013-05-06 20:28:00,
2013-05-06 16:33:00,74.8,40.5,29.95,NNE,13,9.0,13.0,29,0.00,,---,0.00,VWS V14.01,2013-05-06 20:33:00,
2013-05-06 16:38:00,74.9,40.5,29.95,North,360,8.0,9.0,29,0.00,,---,0.00,VWS V14.01,2013-05-06 20:38:00,
2013-05-06 16:43:00,74.9,41.4,29.94,NNE,32,11.0,12.0,30,0.00,,---,0.00,VWS V14.01,2013-05-06 20:43:00,
2013-05-06 16:48:00,74.9,41.4,29.95,NE,50,11.0,11.0,30,0.00,,---,0.00,VWS V14.01,2013-05-06 20:48:00,
2013-05-06 16:53:00,75.0,40.6,29.94,East,84,5.0,12.0,29,0.00,,---,0.00,VWS V14.01,2013-05-06 20:53:00,
2013-05-06 16:58:00,75.1,41.6,29.94,North,360,6.0,8.0,30,0.00,,---,0.00,VWS V14.01,2013-05-06 20:58:00,
2013-05-06 17:03:00,75.2,40.8,29.94,NE,41,7.0,10.0,29,0.00,,---,0.00,VWS V14.01,2013-05-06 21:03:00,
2013-05-06 17:08:00,75.2,39.9,29.94,NE,44,4.0,7.0,28,0.00,,---,0.00,VWS V14.01,2013-05-06 21:08:00,
2013-05-06 17:13:00,75.2,40.8,29.94,NE,53,10.0,11.0,29,0.00,,---,0.00,VWS V14.01,2013-05-06 21:13:00,
2013-05-06 17:18:00,74.8,40.5,29.94,NE,52,6.0,11.0,29,0.00,,---,0.00,VWS V14.01,2013-05-06 21:18:00,
2013-05-06 17:23:00,74.6,39.4,29.94,NNE,30,3.0,7.0,28,0.00,,---,0.00,VWS V14.01,2013-05-06 21:23:00,
2013-05-06 17:28:00,74.5,41.9,29.94,NNE,13,5.0,8.0,31,0.00,,---,0.00,VWS V14.01,2013-05-06 21:28:00,
2013-05-06 17:33:00,74.4,44.2,29.94,NE,49,6.0,9.0,34,0.00,,---,0.00,VWS V14.01,2013-05-06 21:33:00,
2013-05-06 17:38:00,74.6,42.0,29.94,NE,46,2.0,7.0,31,0.00,,---,0.00,VWS V14.01,2013-05-06 21:38:00,
2013-05-06 17:43:00,74.7,40.4,29.94,NE,41,5.0,9.0,29,0.00,,---,0.00,VWS V14.01,2013-05-06 21:43:00,
2013-05-06 17:48:00,74.9,42.3,29.94,NE,48,4.0,10.0,31,0.00,,---,0.00,VWS V14.01,2013-05-06 21:48:00,
2013-05-06 17:53:00,75.1,43.3,29.94,NNE,31,9.0,9.0,32,0.00,,---,0.00,VWS V14.01,2013-05-06 21:53:00,
2013-05-06 17:58:00,75.0,42.3,29.94,NNE,31,5.0,11.0,31,0.00,,---,0.00,VWS V14.01,2013-05-06 21:58:00,
2013-05-06 18:03:00,75.2,42.5,29.94,NNE,30,6.0,6.0,31,0.00,,---,0.00,VWS V14.01,2013-05-06 22:03:00,
2013-05-06 18:08:00,75.3,41.8,29.94,NNE,27,8.0,8.0,30,0.00,,---,0.00,VWS V14.01,2013-05-06 22:08:00,
2013-05-06 18:13:00,75.3,41.8,29.94,ENE,75,7.0,7.0,30,0.00,,---,0.00,VWS V14.01,2013-05-06 22:13:00,
2013-05-06 18:18:00,75.2,41.7,29.94,ENE,62,6.0,8.0,30,0.00,,---,0.00,VWS V14.01,2013-05-06 22:18:00,
2013-05-06 18:23:00,75.1,41.6,29.94,ENE,67,5.0,8.0,30,0.00,,---,0.00,VWS V14.01,2013-05-06 22:23:00,
2013-05-06 18:28:00,75.0,43.2,29.94,NE,51,7.0,10.0,32,0.00,,---,0.00,VWS V14.01,2013-05-06 22:28:00,
2013-05-06 18:33:00,75.0,44.0,29.94,NE,48,8.0,10.0,33,0.00,,---,0.00,VWS V14.01,2013-05-06 22:33:00,
2013-05-06 18:38:00,75.0,42.3,29.94,NE,56,4.0,8.0,31,0.00,,---,0.00,VWS V14.01,2013-05-06 22:38:00,
2013-05-06 18:43:00,75.1,44.1,29.94,ENE,60,6.0,10.0,33,0.00,,---,0.00,VWS V14.01,2013-05-06 22:43:00,
2013-05-06 18:48:00,75.0,43.2,29.94,East,96,5.0,7.0,32,0.00,,---,0.00,VWS V14.01,2013-05-06 22:48:00,
2013-05-06 18:53:00,74.9,43.1,29.94,ENE,63,2.0,6.0,32,0.00,,---,0.00,VWS V14.01,2013-05-06 22:53:00,
2013-05-06 18:58:00,74.9,44.7,29.94,NE,47,3.0,6.0,34,0.00,,---,0.00,VWS V14.01,2013-05-06 22:58:00,
2013-05-06 19:03:00,74.9,44.7,29.94,NNE,33,7.0,8.0,34,0.00,,---,0.00,VWS V14.01,2013-05-06 23:03:00,
2013-05-06 19:08:00,74.6,45.9,29.94,NE,40,7.0,10.0,36,0.00,,---,0.00,VWS V14.01,2013-05-06 23:08:00,
2013-05-06 19:13:00,74.3,44.9,29.94,NE,55,7.0,11.0,35,0.00,,---,0.00,VWS V14.01,2013-05-06 23:13:00,
2013-05-06 19:18:00,74.1,45.5,29.94,NE,40,6.0,9.0,36,0.00,,---,0.00,VWS V14.01,2013-05-06 23:18:00,
2013-05-06 19:23:00,74.0,46.8,29.94,NE,54,8.0,10.0,38,0.00,,---,0.00,VWS V14.01,2013-05-06 23:23:00,
2013-05-06 19:28:00,73.8,46.6,29.94,ENE,71,5.0,10.0,38,0.00,,---,0.00,VWS V14.01,2013-05-06 23:28:00,
2013-05-06 19:33:00,73.6,47.8,29.94,NE,53,6.0,8.0,40,0.00,,---,0.00,VWS V14.01,2013-05-06 23:33:00,
2013-05-06 19:38:00,73.4,47.0,29.94,NE,36,6.0,7.0,39,0.00,,---,0.00,VWS V14.01,2013-05-06 23:38:00,
2013-05-06 19:43:00,73.1,47.4,29.94,NE,55,3.0,8.0,40,0.00,,---,0.00,VWS V14.01,2013-05-06 23:43:00,
2013-05-06 19:48:00,72.9,47.2,29.95,East,85,7.0,7.0,40,0.00,,---,0.00,VWS V14.01,2013-05-06 23:48:00,
2013-05-06 19:53:00,72.8,47.8,29.95,ENE,68,3.0,7.0,41,0.00,,---,0.00,VWS V14.01,2013-05-06 23:53:00,
2013-05-06 19:58:00,72.5,48.1,29.95,ENE,63,3.0,7.0,42,0.00,,---,0.00,VWS V14.01,2013-05-06 23:58:00,
2013-05-06 20:03:00,72.3,48.0,29.95,ENE,77,3.0,4.0,42,0.00,,---,0.00,VWS V14.01,2013-05-07 00:03:00,
2013-05-06 20:08:00,72.0,47.7,29.95,South,190,2.0,4.0,42,0.00,,---,0.00,VWS V14.01,2013-05-07 00:08:00,
2013-05-06 20:13:00,71.8,48.1,29.95,ESE,111,2.0,4.0,43,0.00,,---,0.00,VWS V14.01,2013-05-07 00:13:00,
2013-05-06 20:18:00,71.5,48.5,29.95,SSE,162,1.0,4.0,44,0.00,,---,0.00,VWS V14.01,2013-05-07 00:18:00,
2013-05-06 20:23:00,71.1,47.5,29.96,ESE,104,0.0,5.0,43,0.00,,---,0.00,VWS V14.01,2013-05-07 00:23:00,
2013-05-06 20:28:00,70.6,50.0,29.96,ENE,61,0.0,3.0,48,0.00,,---,0.00,VWS V14.01,2013-05-07 00:28:00,
2013-05-06 20:33:00,70.0,50.5,29.96,ESE,123,0.0,2.0,50,0.00,,---,0.00,VWS V14.01,2013-05-07 00:33:00,
2013-05-06 20:38:00,69.4,49.4,29.96,ESE,122,0.0,1.0,49,0.00,,---,0.00,VWS V14.01,2013-05-07 00:38:00,
2013-05-06 20:43:00,68.8,48.9,29.96,ESE,122,0.0,0.0,49,0.00,,---,0.00,VWS V14.01,2013-05-07 00:43:00,
2013-05-06 20:48:00,68.2,48.9,29.96,NE,45,2.0,2.0,50,0.00,,---,0.00,VWS V14.01,2013-05-07 00:48:00,
2013-05-06 20:53:00,67.7,49.5,29.96,ESE,103,0.0,2.0,52,0.00,,---,0.00,VWS V14.01,2013-05-07 00:53:00,
2013-05-06 20:58:00,67.2,49.0,29.96,ESE,108,0.0,0.0,52,0.00,,---,0.00,VWS V14.01,2013-05-07 00:58:00,
2013-05-06 21:03:00,66.6,49.0,29.96,NNE,22,0.0,0.0,53,0.00,,---,0.00,VWS V14.01,2013-05-07 01:03:00,
2013-05-06 21:08:00,66.1,50.0,29.96,NNE,22,0.0,0.0,56,0.00,,---,0.00,VWS V14.01,2013-05-07 01:08:00,
2013-05-06 21:13:00,65.4,49.3,29.96,NNE,22,0.0,0.0,56,0.00,,---,0.00,VWS V14.01,2013-05-07 01:13:00,
2013-05-06 21:18:00,65.2,49.1,29.96,NNE,22,0.0,0.0,56,0.00,,---,0.00,VWS V14.01,2013-05-07 01:18:00,
2013-05-06 21:23:00,64.9,48.8,29.97,NNE,22,0.0,0.0,56,0.00,,---,0.00,VWS V14.01,2013-05-07 01:23:00,
2013-05-06 21:28:00,64.8,48.8,29.97,NNE,22,0.0,0.0,56,0.00,,---,0.00,VWS V14.01,2013-05-07 01:28:00,
2013-05-06 21:33:00,64.6,48.6,29.97,NNE,22,0.0,2.0,56,0.00,,---,0.00,VWS V14.01,2013-05-07 01:33:00,
2013-05-06 21:38:00,64.3,49.2,29.97,NNE,22,0.0,0.0,58,0.00,,---,0.00,VWS V14.01,2013-05-07 01:38:00,
2013-05-06 21:43:00,63.6,49.5,29.97,NNE,22,0.0,0.0,60,0.00,,---,0.00,VWS V14.01,2013-05-07 01:43:00,
2013-05-06 21:48:00,62.9,49.7,29.97,NNE,22,0.0,0.0,62,0.00,,---,0.00,VWS V14.01,2013-05-07 01:48:00,
2013-05-06 21:53:00,62.4,49.2,29.97,NNE,22,0.0,0.0,62,0.00,,---,0.00,VWS V14.01,2013-05-07 01:53:00,
2013-05-06 21:58:00,61.9,49.6,29.97,NNE,22,0.0,0.0,64,0.00,,---,0.00,VWS V14.01,2013-05-07 01:58:00,
2013-05-06 22:03:00,61.7,49.8,29.97,NNE,22,0.0,0.0,65,0.00,,---,0.00,VWS V14.01,2013-05-07 02:03:00,
2013-05-06 22:08:00,61.6,49.3,29.97,NNE,22,0.0,0.0,64,0.00,,---,0.00,VWS V14.01,2013-05-07 02:08:00,
2013-05-06 22:13:00,61.5,49.6,29.97,NNE,22,0.0,0.0,65,0.00,,---,0.00,VWS V14.01,2013-05-07 02:13:00,
2013-05-06 22:18:00,61.3,49.9,29.98,ENE,68,3.0,3.0,66,0.00,,---,0.00,VWS V14.01,2013-05-07 02:18:00,
2013-05-06 22:23:00,61.0,49.6,29.98,SE,140,6.0,6.0,66,0.00,,---,0.00,VWS V14.01,2013-05-07 02:23:00,
2013-05-06 22:28:00,60.8,50.6,29.98,SE,143,2.0,9.0,69,0.00,,---,0.00,VWS V14.01,2013-05-07 02:28:00,
2013-05-06 22:33:00,60.5,50.7,29.98,SSE,149,1.0,7.0,70,0.00,,---,0.00,VWS V14.01,2013-05-07 02:33:00,
2013-05-06 22:38:00,60.3,50.5,29.99,SSE,149,0.0,1.0,70,0.00,,---,0.00,VWS V14.01,2013-05-07 02:38:00,
2013-05-06 22:43:00,60.2,50.0,29.99,SSE,149,0.0,0.0,69,0.00,,---,0.00,VWS V14.01,2013-05-07 02:43:00,
2013-05-06 22:48:00,60.2,50.4,29.98,SSE,149,0.0,0.0,70,0.00,,---,0.00,VWS V14.01,2013-05-07 02:48:00,
2013-05-06 22:53:00,59.9,50.9,29.99,SSE,149,0.0,0.0,72,0.00,,---,0.00,VWS V14.01,2013-05-07 02:53:00,
2013-05-06 22:58:00,59.4,50.4,29.98,SSE,149,0.0,0.0,72,0.00,,---,0.00,VWS V14.01,2013-05-07 02:58:00,
2013-05-06 23:03:00,59.0,50.7,29.98,SSE,149,2.0,4.0,74,0.00,,---,0.00,VWS V14.01,2013-05-07 03:03:00,
2013-05-06 23:08:00,58.4,50.2,29.98,South,173,2.0,4.0,74,0.00,,---,0.00,VWS V14.01,2013-05-07 03:08:00,
2013-05-06 23:13:00,57.8,49.9,29.98,South,173,0.0,2.0,75,0.00,,---,0.00,VWS V14.01,2013-05-07 03:13:00,
2013-05-06 23:18:00,57.4,50.3,29.99,South,173,0.0,0.0,77,0.00,,---,0.00,VWS V14.01,2013-05-07 03:18:00,
2013-05-06 23:23:00,57.0,49.9,29.98,South,173,0.0,0.0,77,0.00,,---,0.00,VWS V14.01,2013-05-07 03:23:00,
2013-05-06 23:28:00,56.8,50.0,29.98,South,173,0.0,0.0,78,0.00,,---,0.00,VWS V14.01,2013-05-07 03:28:00,
2013-05-06 23:33:00,56.5,50.1,29.98,South,173,0.0,2.0,79,0.00,,---,0.00,VWS V14.01,2013-05-07 03:33:00,
2013-05-06 23:38:00,56.3,49.9,29.98,South,173,0.0,1.0,79,0.00,,---,0.00,VWS V14.01,2013-05-07 03:38:00,
2013-05-06 23:43:00,56.1,49.7,29.98,South,173,0.0,0.0,79,0.00,,---,0.00,VWS V14.01,2013-05-07 03:43:00,
2013-05-06 23:48:00,55.8,49.7,29.98,South,173,0.0,0.0,80,0.00,,---,0.00,VWS V14.01,2013-05-07 03:48:00,
2013-05-06 23:53:00,55.7,49.6,29.98,South,173,0.0,0.0,80,0.00,,---,0.00,VWS V14.01,2013-05-07 03:53:00,
2013-05-06 23:58:00,55.7,49.6,29.99,South,173,0.0,0.0,80,0.00,,---,0.00,VWS V14.01,2013-05-07 03:58:00,